sensor_id;sensor_type;location;lat;lon;timestamp;pressure;altitude;pressure_sealevel;temperature;humidity
76632;BME280;65526;48.578;-4.520;2023-07-24T00:01:46;100316.22;;;17.01;100.00
76632;BME280;65526;48.578;-4.520;2023-07-24T00:04:13;99931.31;;;14.35;100.00
76632;BME280;65526;48.578;-4.520;2023-07-24T00:06:39;100324.63;;;16.97;100.00
76632;BME280;65526;48.578;-4.520;2023-07-24T00:09:05;100165.19;;;15.86;100.00
76632;BME280;65526;48.578;-4.520;2023-07-24T00:11:32;99897.31;;;14.15;100.00
76632;BME280;65526;48.578;-4.520;2023-07-24T00:13:58;100316.63;;;16.96;100.00
76632;BME280;65526;48.578;-4.520;2023-07-24T00:16:24;100110.28;;;15.50;100.00
76632;BME280;65526;48.578;-4.520;2023-07-24T00:18:51;99595.97;;;12.38;100.00
76632;BME280;65526;48.578;-4.520;2023-07-24T00:21:17;100288.53;;;16.99;100.00
76632;BME280;65526;48.578;-4.520;2023-07-24T00:23:43;100260.09;;;16.44;100.00
76632;BME280;65526;48.578;-4.520;2023-07-24T00:26:10;100302.19;;;17.01;100.00
76632;BME280;65526;48.578;-4.520;2023-07-24T00:28:36;99828.59;;;13.85;100.00
76632;BME280;65526;48.578;-4.520;2023-07-24T00:31:02;99897.38;;;14.29;100.00
76632;BME280;65526;48.578;-4.520;2023-07-24T00:33:29;100288.56;;;17.03;100.00
76632;BME280;65526;48.578;-4.520;2023-07-24T00:35:56;99675.88;;;12.85;100.00
76632;BME280;65526;48.578;-4.520;2023-07-24T00:38:24;99773.88;;;13.63;100.00
76632;BME280;65526;48.578;-4.520;2023-07-24T00:40:50;100270.91;;;17.02;100.00
76632;BME280;65526;48.578;-4.520;2023-07-24T00:43:17;99850.22;;;14.10;100.00
76632;BME280;65526;48.578;-4.520;2023-07-24T00:45:44;99841.09;;;14.31;100.00
76632;BME280;65526;48.578;-4.520;2023-07-24T00:48:11;99863.78;;;14.15;100.00
76632;BME280;65526;48.578;-4.520;2023-07-24T00:50:39;99682.34;;;13.10;100.00
76632;BME280;65526;48.578;-4.520;2023-07-24T00:53:06;99843.06;;;14.19;100.00
76632;BME280;65526;48.578;-4.520;2023-07-24T00:55:33;100264.47;;;17.06;100.00
76632;BME280;65526;48.578;-4.520;2023-07-24T00:58:00;99913.41;;;14.39;100.00
76632;BME280;65526;48.578;-4.520;2023-07-24T01:00:26;100027.47;;;15.27;100.00
76632;BME280;65526;48.578;-4.520;2023-07-24T01:02:54;99915.47;;;14.78;100.00
76632;BME280;65526;48.578;-4.520;2023-07-24T01:05:25;100283.31;;;17.09;100.00
76632;BME280;65526;48.578;-4.520;2023-07-24T01:07:52;99870.22;;;14.29;100.00
76632;BME280;65526;48.578;-4.520;2023-07-24T01:10:18;99732.75;;;13.49;100.00
76632;BME280;65526;48.578;-4.520;2023-07-24T01:13:10;100139.91;;;16.46;100.00
76632;BME280;65526;48.578;-4.520;2023-07-24T01:15:56;99557.09;;;12.70;100.00
76632;BME280;65526;48.578;-4.520;2023-07-24T01:18:26;99723.97;;;13.51;100.00
76632;BME280;65526;48.578;-4.520;2023-07-24T01:20:56;100266.47;;;17.09;100.00
76632;BME280;65526;48.578;-4.520;2023-07-24T01:23:38;99550.75;;;12.77;100.00
76632;BME280;65526;48.578;-4.520;2023-07-24T01:26:10;99997.88;;;15.58;100.00
76632;BME280;65526;48.578;-4.520;2023-07-24T01:28:37;99796.72;;;14.15;100.00
76632;BME280;65526;48.578;-4.520;2023-07-24T01:31:05;99850.25;;;14.35;100.00
76632;BME280;65526;48.578;-4.520;2023-07-24T01:33:32;100231.97;;;17.04;100.00
76632;BME280;65526;48.578;-4.520;2023-07-24T01:36:03;99845.47;;;14.32;100.00
76632;BME280;65526;48.578;-4.520;2023-07-24T01:38:31;100229.97;;;17.05;100.00
76632;BME280;65526;48.578;-4.520;2023-07-24T01:41:00;99785.16;;;14.13;100.00
76632;BME280;65526;48.578;-4.520;2023-07-24T01:43:27;99767.94;;;13.89;100.00
76632;BME280;65526;48.578;-4.520;2023-07-24T01:45:54;99784.75;;;14.21;100.00
76632;BME280;65526;48.578;-4.520;2023-07-24T01:48:21;99684.53;;;13.63;100.00
76632;BME280;65526;48.578;-4.520;2023-07-24T01:50:47;99658.59;;;13.59;100.00
76632;BME280;65526;48.578;-4.520;2023-07-24T01:53:14;99546.03;;;13.02;100.00
76632;BME280;65526;48.578;-4.520;2023-07-24T01:55:40;99708.50;;;14.03;100.00
76632;BME280;65526;48.578;-4.520;2023-07-24T01:58:06;99490.59;;;12.65;100.00
76632;BME280;65526;48.578;-4.520;2023-07-24T02:00:33;100146.25;;;16.72;100.00
76632;BME280;65526;48.578;-4.520;2023-07-24T02:02:59;99862.75;;;14.73;100.00
76632;BME280;65526;48.578;-4.520;2023-07-24T02:05:26;99489.38;;;12.59;100.00
76632;BME280;65526;48.578;-4.520;2023-07-24T02:07:52;99667.72;;;13.42;100.00
76632;BME280;65526;48.578;-4.520;2023-07-24T02:10:19;99770.78;;;14.07;100.00
76632;BME280;65526;48.578;-4.520;2023-07-24T02:12:45;99818.38;;;14.39;100.00
76632;BME280;65526;48.578;-4.520;2023-07-24T02:15:11;99817.97;;;14.58;100.00
76632;BME280;65526;48.578;-4.520;2023-07-24T02:17:40;99616.63;;;13.13;100.00
76632;BME280;65526;48.578;-4.520;2023-07-24T02:20:08;99461.06;;;12.53;100.00
76632;BME280;65526;48.578;-4.520;2023-07-24T02:22:35;99662.16;;;13.49;100.00
76632;BME280;65526;48.578;-4.520;2023-07-24T02:25:04;100177.06;;;17.03;100.00
76632;BME280;65526;48.578;-4.520;2023-07-24T02:27:31;99799.22;;;14.73;100.00
76632;BME280;65526;48.578;-4.520;2023-07-24T02:30:01;99890.69;;;15.19;100.00
76632;BME280;65526;48.578;-4.520;2023-07-24T02:32:27;99744.03;;;13.96;100.00
76632;BME280;65526;48.578;-4.520;2023-07-24T02:34:54;99930.25;;;15.63;100.00
76632;BME280;65526;48.578;-4.520;2023-07-24T02:37:20;99734.47;;;14.04;100.00
76632;BME280;65526;48.578;-4.520;2023-07-24T02:39:46;100222.31;;;17.13;100.00
76632;BME280;65526;48.578;-4.520;2023-07-24T02:42:13;99457.13;;;12.68;100.00
76632;BME280;65526;48.578;-4.520;2023-07-24T02:44:39;99645.47;;;13.67;100.00
76632;BME280;65526;48.578;-4.520;2023-07-24T02:47:06;100195.84;;;17.17;100.00
76632;BME280;65526;48.578;-4.520;2023-07-24T02:49:32;99594.34;;;13.24;100.00
76632;BME280;65526;48.578;-4.520;2023-07-24T02:51:59;99750.84;;;14.19;100.00
76632;BME280;65526;48.578;-4.520;2023-07-24T02:54:25;99487.06;;;12.96;100.00
76632;BME280;65526;48.578;-4.520;2023-07-24T02:56:52;99461.53;;;12.80;100.00
76632;BME280;65526;48.578;-4.520;2023-07-24T02:59:19;100158.50;;;17.20;100.00
76632;BME280;65526;48.578;-4.520;2023-07-24T03:01:45;99800.41;;;14.72;100.00
76632;BME280;65526;48.578;-4.520;2023-07-24T03:04:12;99653.03;;;13.59;100.00
76632;BME280;65526;48.578;-4.520;2023-07-24T03:06:39;99782.44;;;14.52;100.00
76632;BME280;65526;48.578;-4.520;2023-07-24T03:09:05;99712.91;;;14.08;100.00
76632;BME280;65526;48.578;-4.520;2023-07-24T03:11:32;100171.75;;;17.20;100.00
76632;BME280;65526;48.578;-4.520;2023-07-24T03:13:58;99786.81;;;14.39;100.00
76632;BME280;65526;48.578;-4.520;2023-07-24T03:16:26;99793.59;;;14.55;100.00
76632;BME280;65526;48.578;-4.520;2023-07-24T03:18:52;100186.59;;;17.24;100.00
76632;BME280;65526;48.578;-4.520;2023-07-24T03:21:19;99833.13;;;15.03;100.00
76632;BME280;65526;48.578;-4.520;2023-07-24T03:23:46;99776.84;;;14.66;100.00
76632;BME280;65526;48.578;-4.520;2023-07-24T03:26:13;99676.59;;;14.01;100.00
76632;BME280;65526;48.578;-4.520;2023-07-24T03:28:39;99432.84;;;12.80;100.00
76632;BME280;65526;48.578;-4.520;2023-07-24T03:31:05;100152.47;;;17.25;100.00
76632;BME280;65526;48.578;-4.520;2023-07-24T03:33:32;99766.06;;;14.54;100.00
76632;BME280;65526;48.578;-4.520;2023-07-24T03:35:58;99613.94;;;13.77;100.00
76632;BME280;65526;48.578;-4.520;2023-07-24T03:38:24;99743.28;;;14.52;100.00
76632;BME280;65526;48.578;-4.520;2023-07-24T03:40:52;99824.75;;;15.07;100.00
76632;BME280;65526;48.578;-4.520;2023-07-24T03:43:18;99731.28;;;14.23;100.00
76632;BME280;65526;48.578;-4.520;2023-07-24T03:45:44;99727.28;;;14.35;100.00
76632;BME280;65526;48.578;-4.520;2023-07-24T03:48:11;99807.53;;;15.19;100.00
76632;BME280;65526;48.578;-4.520;2023-07-24T03:50:40;99841.53;;;15.00;100.00
76632;BME280;65526;48.578;-4.520;2023-07-24T03:53:06;100144.88;;;17.19;100.00
76632;BME280;65526;48.578;-4.520;2023-07-24T03:55:33;99570.06;;;13.60;100.00
76632;BME280;65526;48.578;-4.520;2023-07-24T03:57:59;99470.31;;;12.96;100.00
76632;BME280;65526;48.578;-4.520;2023-07-24T04:00:25;100151.69;;;17.21;100.00
76632;BME280;65526;48.578;-4.520;2023-07-24T04:02:51;99826.72;;;15.17;100.00
76632;BME280;65526;48.578;-4.520;2023-07-24T04:05:18;99481.47;;;13.07;100.00
76632;BME280;65526;48.578;-4.520;2023-07-24T04:07:44;99624.31;;;13.91;100.00
76632;BME280;65526;48.578;-4.520;2023-07-24T04:10:11;99685.34;;;13.88;100.00
76632;BME280;65526;48.578;-4.520;2023-07-24T04:12:37;100170.16;;;17.22;100.00
76632;BME280;65526;48.578;-4.520;2023-07-24T04:15:04;99696.16;;;14.18;100.00
76632;BME280;65526;48.578;-4.520;2023-07-24T04:17:30;99536.50;;;13.10;100.00
76632;BME280;65526;48.578;-4.520;2023-07-24T04:20:05;100164.50;;;17.26;100.00
76632;BME280;65526;48.578;-4.520;2023-07-24T04:22:34;99716.53;;;14.54;100.00
76632;BME280;65526;48.578;-4.520;2023-07-24T04:25:01;99622.72;;;13.65;100.00
76632;BME280;65526;48.578;-4.520;2023-07-24T04:27:28;99588.00;;;13.80;100.00
76632;BME280;65526;48.578;-4.520;2023-07-24T04:29:55;99612.72;;;13.67;100.00
76632;BME280;65526;48.578;-4.520;2023-07-24T04:32:21;99477.09;;;13.09;100.00
76632;BME280;65526;48.578;-4.520;2023-07-24T04:34:48;99831.97;;;15.01;100.00
76632;BME280;65526;48.578;-4.520;2023-07-24T04:37:15;99712.50;;;14.16;100.00
76632;BME280;65526;48.578;-4.520;2023-07-24T04:39:41;99743.28;;;14.48;100.00
76632;BME280;65526;48.578;-4.520;2023-07-24T04:42:09;99842.75;;;15.06;100.00
76632;BME280;65526;48.578;-4.520;2023-07-24T04:44:35;99764.84;;;14.51;100.00
76632;BME280;65526;48.578;-4.520;2023-07-24T04:47:02;100163.69;;;17.29;100.00
76632;BME280;65526;48.578;-4.520;2023-07-24T04:49:31;99770.44;;;14.44;100.00
76632;BME280;65526;48.578;-4.520;2023-07-24T04:51:59;99931.06;;;15.60;100.00
76632;BME280;65526;48.578;-4.520;2023-07-24T04:54:26;99706.13;;;14.37;100.00
76632;BME280;65526;48.578;-4.520;2023-07-24T04:56:52;99851.13;;;14.92;100.00
76632;BME280;65526;48.578;-4.520;2023-07-24T04:59:19;99693.34;;;14.25;100.00
76632;BME280;65526;48.578;-4.520;2023-07-24T05:01:45;99747.66;;;14.49;100.00
76632;BME280;65526;48.578;-4.520;2023-07-24T05:04:11;100216.25;;;17.28;100.00
76632;BME280;65526;48.578;-4.520;2023-07-24T05:06:41;99641.03;;;13.55;100.00
76632;BME280;65526;48.578;-4.520;2023-07-24T05:09:09;99676.59;;;13.86;100.00
76632;BME280;65526;48.578;-4.520;2023-07-24T05:11:38;100065.44;;;16.28;100.00
76632;BME280;65526;48.578;-4.520;2023-07-24T05:14:06;99725.28;;;14.32;100.00
76632;BME280;65526;48.578;-4.520;2023-07-24T05:16:33;99821.53;;;15.05;100.00
76632;BME280;65526;48.578;-4.520;2023-07-24T05:19:05;99808.38;;;14.77;100.00
76632;BME280;65526;48.578;-4.520;2023-07-24T05:21:34;99616.72;;;13.87;100.00
76632;BME280;65526;48.578;-4.520;2023-07-24T05:24:01;99603.13;;;13.54;100.00
76632;BME280;65526;48.578;-4.520;2023-07-24T05:26:28;100222.22;;;17.41;100.00
76632;BME280;65526;48.578;-4.520;2023-07-24T05:28:54;99813.97;;;14.95;100.00
76632;BME280;65526;48.578;-4.520;2023-07-24T05:31:20;99893.50;;;15.26;100.00
76632;BME280;65526;48.578;-4.520;2023-07-24T05:33:47;99826.34;;;14.90;100.00
76632;BME280;65526;48.578;-4.520;2023-07-24T05:36:13;99805.19;;;14.75;100.00
76632;BME280;65526;48.578;-4.520;2023-07-24T05:38:39;99807.59;;;14.59;100.00
76632;BME280;65526;48.578;-4.520;2023-07-24T05:41:06;100214.59;;;17.41;100.00
76632;BME280;65526;48.578;-4.520;2023-07-24T05:43:32;99868.34;;;14.94;100.00
76632;BME280;65526;48.578;-4.520;2023-07-24T05:45:59;99843.16;;;14.83;100.00
76632;BME280;65526;48.578;-4.520;2023-07-24T05:48:25;99735.69;;;14.42;100.00
76632;BME280;65526;48.578;-4.520;2023-07-24T05:50:52;99968.69;;;15.56;100.00
76632;BME280;65526;48.578;-4.520;2023-07-24T05:53:18;100250.34;;;17.37;100.00
76632;BME280;65526;48.578;-4.520;2023-07-24T05:55:45;100070.66;;;16.11;100.00
76632;BME280;65526;48.578;-4.520;2023-07-24T05:58:11;99806.00;;;14.51;100.00
76632;BME280;65526;48.578;-4.520;2023-07-24T06:00:38;99812.78;;;14.71;100.00
76632;BME280;65526;48.578;-4.520;2023-07-24T06:03:04;99694.13;;;14.08;100.00
76632;BME280;65526;48.578;-4.520;2023-07-24T06:05:31;99805.59;;;14.66;100.00
76632;BME280;65526;48.578;-4.520;2023-07-24T06:07:57;100212.53;;;17.46;100.00
76632;BME280;65526;48.578;-4.520;2023-07-24T06:10:23;99599.16;;;13.37;100.00
76632;BME280;65526;48.578;-4.520;2023-07-24T06:12:50;99780.81;;;14.33;100.00
76632;BME280;65526;48.578;-4.520;2023-07-24T06:15:16;99821.56;;;14.55;100.00
76632;BME280;65526;48.578;-4.520;2023-07-24T06:17:43;100221.00;;;17.42;100.00
76632;BME280;65526;48.578;-4.520;2023-07-24T06:20:09;99893.91;;;15.14;100.00
76632;BME280;65526;48.578;-4.520;2023-07-24T06:22:35;99852.34;;;14.77;100.00
76632;BME280;65526;48.578;-4.520;2023-07-24T06:25:02;99894.69;;;15.11;100.00
76632;BME280;65526;48.578;-4.520;2023-07-24T06:27:28;100003.00;;;16.06;100.00
76632;BME280;65526;48.578;-4.520;2023-07-24T06:29:55;99702.16;;;14.27;100.00
76632;BME280;65526;48.578;-4.520;2023-07-24T06:32:21;99803.16;;;14.90;100.00
76632;BME280;65526;48.578;-4.520;2023-07-24T06:34:48;99696.13;;;14.36;100.00
76632;BME280;65526;48.578;-4.520;2023-07-24T06:37:14;100242.13;;;17.71;100.00
76632;BME280;65526;48.578;-4.520;2023-07-24T06:39:40;99832.34;;;14.89;100.00
76632;BME280;65526;48.578;-4.520;2023-07-24T06:42:07;99688.19;;;14.20;100.00
76632;BME280;65526;48.578;-4.520;2023-07-24T06:44:33;99802.41;;;14.64;100.00
76632;BME280;65526;48.578;-4.520;2023-07-24T06:47:00;99837.94;;;14.89;100.00
76632;BME280;65526;48.578;-4.520;2023-07-24T06:49:26;100271.03;;;17.72;100.00
76632;BME280;65526;48.578;-4.520;2023-07-24T06:51:52;99680.16;;;13.76;100.00
76632;BME280;65526;48.578;-4.520;2023-07-24T06:54:19;99811.56;;;14.68;100.00
76632;BME280;65526;48.578;-4.520;2023-07-24T06:56:45;99870.72;;;14.92;100.00
76632;BME280;65526;48.578;-4.520;2023-07-24T06:59:12;99779.25;;;14.46;100.00
76632;BME280;65526;48.578;-4.520;2023-07-24T07:01:38;99603.13;;;13.54;100.00
76632;BME280;65526;48.578;-4.520;2023-07-24T07:04:05;99559.66;;;13.25;100.00
76632;BME280;65526;48.578;-4.520;2023-07-24T07:06:31;99860.34;;;14.92;100.00
76632;BME280;65526;48.578;-4.520;2023-07-24T07:08:58;99901.91;;;15.12;100.00
76632;BME280;65526;48.578;-4.520;2023-07-24T07:11:54;100258.63;;;17.69;100.00
76632;BME280;65526;48.578;-4.520;2023-07-24T07:14:46;99730.47;;;14.05;100.00
76632;BME280;65526;48.578;-4.520;2023-07-24T07:17:12;99808.38;;;14.70;100.00
76632;BME280;65526;48.578;-4.520;2023-07-24T07:19:39;99922.69;;;15.00;100.00
76632;BME280;65526;48.578;-4.520;2023-07-24T07:22:05;99750.03;;;14.15;100.00
76632;BME280;65526;48.578;-4.520;2023-07-24T07:24:32;99890.72;;;14.87;100.00
76632;BME280;65526;48.578;-4.520;2023-07-24T07:26:58;100300.00;;;17.65;100.00
76632;BME280;65526;48.578;-4.520;2023-07-24T07:29:25;100308.03;;;17.67;100.00
76632;BME280;65526;48.578;-4.520;2023-07-24T07:31:51;99857.53;;;14.68;100.00
76632;BME280;65526;48.578;-4.520;2023-07-24T07:34:18;100306.38;;;17.73;100.00
76632;BME280;65526;48.578;-4.520;2023-07-24T07:36:44;99894.31;;;14.98;100.00
76632;BME280;65526;48.578;-4.520;2023-07-24T07:39:11;99874.31;;;14.71;100.00
76632;BME280;65526;48.578;-4.520;2023-07-24T07:41:37;99902.31;;;15.06;100.00
76632;BME280;65526;48.578;-4.520;2023-07-24T07:44:03;99803.19;;;14.65;100.00
76632;BME280;65526;48.578;-4.520;2023-07-24T07:46:30;99687.34;;;13.67;100.00
76632;BME280;65526;48.578;-4.520;2023-07-24T07:48:56;99897.88;;;15.02;100.00
76632;BME280;65526;48.578;-4.520;2023-07-24T07:51:23;100325.59;;;17.89;100.00
76632;BME280;65526;48.578;-4.520;2023-07-24T07:53:51;99904.69;;;15.26;100.00
76632;BME280;65526;48.578;-4.520;2023-07-24T07:56:18;99857.09;;;15.22;100.00
76632;BME280;65526;48.578;-4.520;2023-07-24T07:58:45;99894.66;;;15.57;100.00
76632;BME280;65526;48.578;-4.520;2023-07-24T08:01:11;99922.25;;;15.51;100.00
76632;BME280;65526;48.578;-4.520;2023-07-24T08:03:38;99663.41;;;14.19;100.00
76632;BME280;65526;48.578;-4.520;2023-07-24T08:06:04;100026.59;;;16.22;100.00
76632;BME280;65526;48.578;-4.520;2023-07-24T08:08:32;100255.84;;;17.55;100.00
76632;BME280;65526;48.578;-4.520;2023-07-24T08:10:58;100003.00;;;16.06;100.00
76632;BME280;65526;48.578;-4.520;2023-07-24T08:13:24;99672.97;;;14.36;100.00
76632;BME280;65526;48.578;-4.520;2023-07-24T08:15:51;99944.28;;;15.60;100.00
76632;BME280;65526;48.578;-4.520;2023-07-24T08:18:17;99952.59;;;15.84;100.00
76632;BME280;65526;48.578;-4.520;2023-07-24T08:20:43;100331.03;;;18.24;100.00
76632;BME280;65526;48.578;-4.520;2023-07-24T08:23:10;99684.16;;;14.28;100.00
76632;BME280;65526;48.578;-4.520;2023-07-24T08:25:36;99940.66;;;15.63;100.00
76632;BME280;65526;48.578;-4.520;2023-07-24T08:28:03;99814.38;;;14.90;100.00
76632;BME280;65526;48.578;-4.520;2023-07-24T08:30:30;99929.03;;;15.50;100.00
76632;BME280;65526;48.578;-4.520;2023-07-24T08:32:57;99831.94;;;15.12;100.00
76632;BME280;65526;48.578;-4.520;2023-07-24T08:35:25;99911.38;;;15.85;100.00
76632;BME280;65526;48.578;-4.520;2023-07-24T08:37:51;99714.94;;;14.43;100.00
76632;BME280;65526;48.578;-4.520;2023-07-24T08:40:18;99887.00;;;15.75;100.00
76632;BME280;65526;48.578;-4.520;2023-07-24T08:42:44;99958.94;;;16.06;100.00
76632;BME280;65526;48.578;-4.520;2023-07-24T08:45:15;99921.81;;;15.77;100.00
76632;BME280;65526;48.578;-4.520;2023-07-24T08:47:42;100124.81;;;17.20;100.00
76632;BME280;65526;48.578;-4.520;2023-07-24T08:50:12;99960.63;;;15.86;100.00
76632;BME280;65526;48.578;-4.520;2023-07-24T08:52:41;99810.31;;;15.23;100.00
76632;BME280;65526;48.578;-4.520;2023-07-24T08:55:08;99867.47;;;15.39;100.00
76632;BME280;65526;48.578;-4.520;2023-07-24T08:57:35;99666.97;;;14.37;100.00
76632;BME280;65526;48.578;-4.520;2023-07-24T09:00:02;100332.38;;;18.60;100.00
76632;BME280;65526;48.578;-4.520;2023-07-24T09:02:34;99694.19;;;14.40;100.00
76632;BME280;65526;48.578;-4.520;2023-07-24T09:05:01;99664.59;;;14.14;100.00
76632;BME280;65526;48.578;-4.520;2023-07-24T09:07:29;99963.81;;;15.88;100.00
76632;BME280;65526;48.578;-4.520;2023-07-24T09:09:56;99956.22;;;15.85;100.00
76632;BME280;65526;48.578;-4.520;2023-07-24T09:12:22;99678.56;;;14.04;100.00
76632;BME280;65526;48.578;-4.520;2023-07-24T09:15:03;99838.34;;;15.01;100.00
76632;BME280;65526;48.578;-4.520;2023-07-24T09:17:30;99790.41;;;14.46;100.00
76632;BME280;65526;48.578;-4.520;2023-07-24T09:19:57;100117.38;;;16.82;100.00
76632;BME280;65526;48.578;-4.520;2023-07-24T09:22:23;99974.25;;;15.77;100.00
76632;BME280;65526;48.578;-4.520;2023-07-24T09:24:56;99951.88;;;15.31;100.00
76632;BME280;65526;48.578;-4.520;2023-07-24T09:27:27;99866.31;;;15.12;100.00
76632;BME280;65526;48.578;-4.520;2023-07-24T09:29:57;99940.66;;;15.63;100.00
76632;BME280;65526;48.578;-4.520;2023-07-24T09:32:25;99736.06;;;14.22;100.00
76632;BME280;65526;48.578;-4.520;2023-07-24T09:34:52;100399.72;;;18.27;100.00
76632;BME280;65526;48.578;-4.520;2023-07-24T09:37:34;100150.66;;;16.80;100.00
76632;BME280;65526;48.578;-4.520;2023-07-24T09:40:03;100017.41;;;16.04;100.00
76632;BME280;65526;48.578;-4.520;2023-07-24T09:42:31;99738.88;;;14.33;100.00
76632;BME280;65526;48.578;-4.520;2023-07-24T09:44:58;99915.88;;;15.26;100.00
76632;BME280;65526;48.578;-4.520;2023-07-24T09:47:25;100043.47;;;15.98;100.00
76632;BME280;65526;48.578;-4.520;2023-07-24T09:49:52;99772.84;;;14.60;100.00
76632;BME280;65526;48.578;-4.520;2023-07-24T09:52:21;99953.88;;;15.41;100.00
76632;BME280;65526;48.578;-4.520;2023-07-24T09:54:55;100305.50;;;17.90;100.00
76632;BME280;65526;48.578;-4.520;2023-07-24T09:57:23;99770.44;;;14.44;100.00
76632;BME280;65526;48.578;-4.520;2023-07-24T09:59:51;99784.03;;;14.53;100.00
76632;BME280;65526;48.578;-4.520;2023-07-24T10:02:19;99914.28;;;15.21;100.00
76632;BME280;65526;48.578;-4.520;2023-07-24T10:04:46;99922.31;;;15.01;100.00
76632;BME280;65526;48.578;-4.520;2023-07-24T10:07:13;99888.31;;;15.06;100.00
76632;BME280;65526;48.578;-4.520;2023-07-24T10:09:40;100055.47;;;15.84;100.00
76632;BME280;65526;48.578;-4.520;2023-07-24T10:12:08;100046.69;;;15.78;100.00
76632;BME280;65526;48.578;-4.520;2023-07-24T10:14:35;99857.53;;;14.53;100.00
76632;BME280;65526;48.578;-4.520;2023-07-24T10:17:03;99827.16;;;14.38;100.00
76632;BME280;65526;48.578;-4.520;2023-07-24T10:19:41;100039.06;;;15.43;100.00
76632;BME280;65526;48.578;-4.520;2023-07-24T10:22:16;100196.75;;;16.79;100.00
76632;BME280;65526;48.578;-4.520;2023-07-24T10:24:44;100471.25;;;18.29;100.00
76632;BME280;65526;48.578;-4.520;2023-07-24T10:27:11;100111.94;;;15.93;100.00
76632;BME280;65526;48.578;-4.520;2023-07-24T10:29:38;99763.97;;;13.94;100.00
76632;BME280;65526;48.578;-4.520;2023-07-24T10:32:16;100477.72;;;18.23;100.00
76632;BME280;65526;48.578;-4.520;2023-07-24T10:34:43;100079.09;;;16.04;100.00
76632;BME280;65526;48.578;-4.520;2023-07-24T10:37:10;99943.06;;;14.86;100.00
76632;BME280;65526;48.578;-4.520;2023-07-24T10:39:40;99796.72;;;14.15;100.00
76632;BME280;65526;48.578;-4.520;2023-07-24T10:42:10;100081.47;;;15.38;100.00
76632;BME280;65526;48.578;-4.520;2023-07-24T10:44:37;100090.72;;;15.64;100.00
76632;BME280;65526;48.578;-4.520;2023-07-24T10:47:04;100515.84;;;18.34;100.00
76632;BME280;65526;48.578;-4.520;2023-07-24T10:49:30;100324.66;;;16.94;100.00
76632;BME280;65526;48.578;-4.520;2023-07-24T10:51:57;100113.16;;;15.81;100.00
76632;BME280;65526;48.578;-4.520;2023-07-24T10:54:24;99948.28;;;15.13;100.00
76632;BME280;65526;48.578;-4.520;2023-07-24T10:57:00;100222.44;;;16.67;100.00
76632;BME280;65526;48.578;-4.520;2023-07-24T10:59:37;100078.31;;;15.82;100.00
76632;BME280;65526;48.578;-4.520;2023-07-24T11:02:03;99835.88;;;14.25;100.00
76632;BME280;65526;48.578;-4.520;2023-07-24T11:04:30;100205.25;;;16.29;100.00
76632;BME280;65526;48.578;-4.520;2023-07-24T11:06:57;99941.47;;;14.99;100.00
76632;BME280;65526;48.578;-4.520;2023-07-24T11:09:34;99960.22;;;14.78;100.00
76632;BME280;65526;48.578;-4.520;2023-07-24T11:12:15;100535.44;;;18.59;100.00
76632;BME280;65526;48.578;-4.520;2023-07-24T11:14:50;99814.31;;;14.22;99.01
76632;BME280;65526;48.578;-4.520;2023-07-24T11:17:17;100003.06;;;15.06;100.00
76632;BME280;65526;48.578;-4.520;2023-07-24T11:19:43;100316.16;;;17.29;100.00
76632;BME280;65526;48.578;-4.520;2023-07-24T11:22:10;100211.22;;;16.31;97.32
76632;BME280;65526;48.578;-4.520;2023-07-24T11:24:45;100032.19;;;14.84;98.22
76632;BME280;65526;48.578;-4.520;2023-07-24T11:27:16;100505.78;;;18.33;99.28
76632;BME280;65526;48.578;-4.520;2023-07-24T11:29:48;100058.66;;;15.33;98.49
76632;BME280;65526;48.578;-4.520;2023-07-24T11:32:21;99983.03;;;14.90;96.04
76632;BME280;65526;48.578;-4.520;2023-07-24T11:34:49;99946.22;;;14.63;95.22
76632;BME280;65526;48.578;-4.520;2023-07-24T11:37:17;99996.63;;;14.85;94.68
76632;BME280;65526;48.578;-4.520;2023-07-24T11:39:58;100288.56;;;16.96;96.57
76632;BME280;65526;48.578;-4.520;2023-07-24T11:42:26;100524.63;;;18.50;96.40
76632;BME280;65526;48.578;-4.520;2023-07-24T11:44:53;100057.47;;;15.37;95.99
76632;BME280;65526;48.578;-4.520;2023-07-24T11:47:20;100127.13;;;16.13;94.70
76632;BME280;65526;48.578;-4.520;2023-07-24T11:50:00;100292.94;;;17.15;91.28
76632;BME280;65526;48.578;-4.520;2023-07-24T11:52:44;100562.00;;;18.51;93.79
76632;BME280;65526;48.578;-4.520;2023-07-24T11:55:16;99846.66;;;14.20;95.32
76632;BME280;65526;48.578;-4.520;2023-07-24T11:57:43;100391.56;;;17.41;96.67
76632;BME280;65526;48.578;-4.520;2023-07-24T12:00:20;100539.03;;;18.67;94.32
76632;BME280;65526;48.578;-4.520;2023-07-24T12:02:47;99859.84;;;14.19;93.75
76632;BME280;65526;48.578;-4.520;2023-07-24T12:05:13;99843.84;;;14.06;95.65
76632;BME280;65526;48.578;-4.520;2023-07-24T12:07:42;100549.16;;;18.46;95.61
76632;BME280;65526;48.578;-4.520;2023-07-24T12:10:10;99883.00;;;14.20;96.29
76632;BME280;65526;48.578;-4.520;2023-07-24T12:12:43;100606.25;;;18.40;96.15
76632;BME280;65526;48.578;-4.520;2023-07-24T12:15:10;100139.88;;;15.43;96.90
76632;BME280;65526;48.578;-4.520;2023-07-24T12:17:37;99814.91;;;13.56;96.23
76632;BME280;65526;48.578;-4.520;2023-07-24T12:20:04;100586.19;;;18.31;98.38
76632;BME280;65526;48.578;-4.520;2023-07-24T12:22:32;99853.00;;;13.99;99.02
76632;BME280;65526;48.578;-4.520;2023-07-24T12:24:58;100270.94;;;16.71;98.67
76632;BME280;65526;48.578;-4.520;2023-07-24T12:27:25;100131.09;;;15.41;98.75
76632;BME280;65526;48.578;-4.520;2023-07-24T12:29:51;100212.03;;;16.10;98.59
76632;BME280;65526;48.578;-4.520;2023-07-24T12:32:18;100198.81;;;15.93;98.83
76632;BME280;65526;48.578;-4.520;2023-07-24T12:34:46;100616.69;;;18.57;99.05
76632;BME280;65526;48.578;-4.520;2023-07-24T12:37:13;100168.38;;;15.74;98.74
76632;BME280;65526;48.578;-4.520;2023-07-24T12:39:39;100329.09;;;16.70;98.37
76632;BME280;65526;48.578;-4.520;2023-07-24T12:42:06;100007.44;;;15.04;99.01